Time;durP1;ratioP1;P1;durP2;ratioP2;P2;SDS_P1;SDS_P2;PMS_P1;PMS_P2;Temp;Humidity;BMP_temperature;BMP_pressure;BME280_temperature;BME280_humidity;BME280_pressure;Samples;Min_cycle;Max_cycle;Signal;HPM_P1;HPM_P2
2022/08/25 00:01:26;;;;;;;24.23;8.10;;;;;;;20.84;66.53;95320.66;5045372;28;20108;-83
2022/08/25 00:03:52;;;;;;;15.60;7.10;;;;;;;20.80;67.17;95322.19;5045471;28;20045;-82
2022/08/25 00:06:17;;;;;;;16.27;6.82;;;;;;;20.92;66.21;95326.78;5045747;28;20111;-83
2022/08/25 00:08:43;;;;;;;13.73;6.65;;;;;;;20.92;66.31;95326.78;5045124;28;20064;-82
2022/08/25 00:11:14;;;;;;;18.85;7.32;;;;;;;20.91;66.82;95325.94;5046766;28;20025;-83
2022/08/25 00:13:42;;;;;;;19.13;7.75;;;;;;;20.89;66.71;95322.63;5049236;28;20017;-83
2022/08/25 00:16:15;;;;;;;17.65;7.28;;;;;;;20.94;66.42;95317.28;5050426;28;20032;-84
2022/08/25 00:18:41;;;;;;;13.52;6.93;;;;;;;20.91;66.94;95327.84;5049752;28;20025;-83
2022/08/25 00:21:07;;;;;;;17.85;6.90;;;;;;;20.86;67.03;95318.50;5049963;28;20021;-83
2022/08/25 00:23:32;;;;;;;15.10;6.47;;;;;;;20.86;67.18;95313.03;5049734;28;20487;-84
2022/08/25 00:25:58;;;;;;;26.05;8.55;;;;;;;20.85;66.96;95308.66;5049345;28;20397;-83
2022/08/25 00:28:23;;;;;;;18.38;6.97;;;;;;;20.81;67.14;95304.75;5050119;28;20033;-84
2022/08/25 00:30:49;;;;;;;18.38;6.40;;;;;;;20.76;67.87;95312.88;5048981;28;20029;-84
2022/08/25 00:33:15;;;;;;;18.65;6.85;;;;;;;20.75;67.63;95317.47;5049893;28;20045;-84
2022/08/25 00:35:41;;;;;;;19.17;7.53;;;;;;;20.74;68.11;95312.28;5049545;28;20033;-84
2022/08/25 00:38:07;;;;;;;23.52;7.63;;;;;;;20.79;67.50;95314.28;5050062;28;20025;-84
2022/08/25 00:40:33;;;;;;;20.13;7.95;;;;;;;20.79;67.51;95320.56;5049082;28;20094;-84
2022/08/25 00:42:59;;;;;;;13.52;6.68;;;;;;;20.85;67.12;95327.75;5049229;28;20028;-83
2022/08/25 00:45:25;;;;;;;21.83;8.15;;;;;;;20.91;66.41;95325.13;5049414;28;20037;-83
2022/08/25 00:47:50;;;;;;;18.45;6.93;;;;;;;20.87;66.65;95325.63;5048289;28;20033;-84
2022/08/25 00:50:16;;;;;;;18.65;6.10;;;;;;;20.91;66.48;95317.75;5049804;28;20029;-83
2022/08/25 00:52:44;;;;;;;21.35;7.47;;;;;;;20.85;66.30;95326.91;5047165;28;20036;-83
2022/08/25 00:55:28;;;;;;;11.90;6.00;;;;;;;20.77;66.67;95316.41;5048824;28;20085;-84
2022/08/25 00:58:01;;;;;;;20.25;6.55;;;;;;;20.74;66.47;95321.28;5049089;28;20094;-83
2022/08/25 01:00:30;;;;;;;14.75;6.72;;;;;;;20.77;66.41;95327.31;5030819;28;20488;-83
2022/08/25 01:02:56;;;;;;;17.75;6.88;;;;;;;20.75;65.86;95316.66;5049402;28;20021;-85
2022/08/25 01:05:22;;;;;;;16.30;6.72;;;;;;;20.67;66.13;95303.44;5048444;28;20025;-83
2022/08/25 01:07:49;;;;;;;21.35;6.88;;;;;;;20.53;65.93;95295.56;5049187;28;20132;-83
2022/08/25 01:10:15;;;;;;;15.10;5.95;;;;;;;20.56;66.02;95296.97;5031254;28;20271;-83
2022/08/25 01:12:41;;;;;;;15.75;6.72;;;;;;;20.53;66.59;95294.72;5048023;28;20020;-83
2022/08/25 01:15:07;;;;;;;13.18;6.80;;;;;;;20.42;67.41;95291.81;5048431;28;20126;-84
2022/08/25 01:17:35;;;;;;;18.90;6.72;;;;;;;20.16;68.19;95304.09;5048339;28;20032;-83
2022/08/25 01:20:00;;;;;;;16.73;6.93;;;;;;;20.24;67.76;95306.44;5047699;28;20032;-83
2022/08/25 01:22:26;;;;;;;17.55;6.03;;;;;;;20.18;68.07;95304.69;5048188;28;20029;-83
2022/08/25 01:24:57;;;;;;;21.95;6.95;;;;;;;20.24;68.07;95301.84;5047869;28;20024;-84
2022/08/25 01:27:22;;;;;;;18.02;6.70;;;;;;;20.20;68.47;95297.13;5046995;28;20044;-84
2022/08/25 01:29:48;;;;;;;17.70;6.60;;;;;;;20.22;68.23;95294.97;5048654;28;20400;-84
2022/08/25 01:32:13;;;;;;;16.45;6.43;;;;;;;20.22;67.93;95303.97;5047848;28;20025;-83
2022/08/25 01:34:40;;;;;;;19.05;6.63;;;;;;;20.28;67.87;95302.16;5048110;28;20052;-83
2022/08/25 01:37:05;;;;;;;24.05;6.40;;;;;;;20.18;68.18;95294.63;5048270;28;20096;-84
2022/08/25 01:39:32;;;;;;;16.30;6.45;;;;;;;20.21;67.82;95296.88;5047984;28;20470;-83
2022/08/25 01:42:10;;;;;;;15.00;6.20;;;;;;;20.23;67.69;95291.19;5048092;28;20044;-84
2022/08/25 01:44:43;;;;;;;14.65;6.95;;;;;;;20.23;67.54;95296.63;5047899;28;20035;-84
2022/08/25 01:47:08;;;;;;;15.38;6.47;;;;;;;20.12;67.73;95290.97;5048757;28;20508;-83
2022/08/25 01:49:34;;;;;;;18.20;6.65;;;;;;;20.21;67.88;95291.44;5047253;28;20094;-84
2022/08/25 01:52:12;;;;;;;18.98;7.47;;;;;;;19.99;68.84;95283.06;5047830;28;20037;-84
2022/08/25 01:54:37;;;;;;;20.58;7.10;;;;;;;20.04;68.61;95288.63;5046581;28;20021;-84
2022/08/25 01:57:03;;;;;;;21.48;7.40;;;;;;;20.12;68.83;95282.81;5047113;28;20166;-84
2022/08/25 01:59:29;;;;;;;16.80;6.85;;;;;;;20.18;68.80;95285.63;5047832;28;20025;-84
2022/08/25 02:01:54;;;;;;;14.77;6.18;;;;;;;20.27;68.46;95289.63;5046819;28;20033;-84
2022/08/25 02:04:20;;;;;;;18.95;6.82;;;;;;;20.25;68.37;95297.19;5048070;28;20033;-84
2022/08/25 02:06:46;;;;;;;14.32;6.38;;;;;;;20.25;68.58;95297.19;5046760;28;20397;-83
2022/08/25 02:09:13;;;;;;;20.27;6.45;;;;;;;20.33;68.12;95307.72;5047714;28;20037;-83
2022/08/25 02:11:40;;;;;;;17.38;6.78;;;;;;;20.40;68.28;95298.56;5047053;28;20021;-84
2022/08/25 02:14:06;;;;;;;17.88;6.43;;;;;;;20.37;68.38;95300.72;5046832;28;20087;-84
2022/08/25 02:16:33;;;;;;;16.58;6.53;;;;;;;20.41;68.29;95294.78;5047642;28;20024;-84
2022/08/25 02:18:58;;;;;;;15.05;6.60;;;;;;;20.43;68.51;95292.63;5046659;28;20048;-84
2022/08/25 02:21:24;;;;;;;17.30;6.78;;;;;;;20.46;68.68;95290.25;5047805;28;20490;-83
2022/08/25 02:23:50;;;;;;;15.52;6.18;;;;;;;20.43;68.69;95282.56;5046529;28;20021;-83
2022/08/25 02:26:17;;;;;;;13.48;6.35;;;;;;;20.46;68.89;95278.53;5047750;28;20037;-82
2022/08/25 02:28:43;;;;;;;21.42;6.43;;;;;;;20.37;68.34;95284.38;5046342;28;20484;-84
2022/08/25 02:31:09;;;;;;;16.70;6.78;;;;;;;20.30;68.37;95280.97;5047190;28;20035;-84
2022/08/25 02:33:34;;;;;;;14.38;6.68;;;;;;;20.00;69.39;95274.66;5046874;28;20496;-84
2022/08/25 02:36:00;;;;;;;10.18;6.18;;;;;;;20.11;69.27;95285.78;5046532;28;20442;-84
2022/08/25 02:38:26;;;;;;;11.52;6.22;;;;;;;20.18;68.99;95274.75;5047142;28;20051;-83
2022/08/25 02:40:53;;;;;;;10.80;6.10;;;;;;;20.14;69.02;95277.13;5046363;28;20029;-84
2022/08/25 02:43:19;;;;;;;18.50;6.15;;;;;;;20.25;68.41;95281.69;5047075;28;20017;-83
2022/08/25 02:45:44;;;;;;;16.60;6.90;;;;;;;20.18;68.39;95281.03;5047069;28;20029;-83
2022/08/25 02:48:10;;;;;;;15.63;6.20;;;;;;;20.24;68.17;95279.22;5046951;28;20025;-83
2022/08/25 02:50:35;;;;;;;13.15;6.70;;;;;;;20.19;68.54;95276.38;5046300;28;20025;-84
2022/08/25 02:53:01;;;;;;;15.18;6.60;;;;;;;20.21;68.36;95280.53;5046381;28;20083;-83
2022/08/25 02:55:26;;;;;;;19.05;6.70;;;;;;;20.12;68.20;95281.97;5046690;28;20017;-84
2022/08/25 02:57:52;;;;;;;16.65;6.40;;;;;;;20.16;68.16;95276.88;5046175;28;20367;-83
2022/08/25 03:00:17;;;;;;;15.55;6.38;;;;;;;20.04;68.68;95291.34;5046392;28;20527;-83
2022/08/25 03:02:43;;;;;;;17.38;6.32;;;;;;;20.10;68.25;95295.81;5045615;28;20021;-84
2022/08/25 03:05:09;;;;;;;21.60;7.25;;;;;;;20.03;68.55;95297.88;5046982;28;20162;-83
2022/08/25 03:07:36;;;;;;;15.18;6.10;;;;;;;20.03;69.02;95289.69;5045686;28;20025;-84
2022/08/25 03:10:07;;;;;;;13.95;5.93;;;;;;;19.94;69.15;95291.13;5045337;28;20137;-84
2022/08/25 03:12:32;;;;;;;13.70;6.35;;;;;;;19.89;69.25;95289.94;5046281;28;20331;-83
2022/08/25 03:14:57;;;;;;;14.23;6.43;;;;;;;19.92;69.18;95285.91;5045959;28;20052;-84
2022/08/25 03:17:23;;;;;;;11.82;6.32;;;;;;;19.95;69.38;95290.03;5046196;28;20024;-83
2022/08/25 03:19:48;;;;;;;17.35;7.18;;;;;;;20.01;69.16;95289.06;5045400;28;20388;-83
2022/08/25 03:22:14;;;;;;;10.52;6.50;;;;;;;19.94;69.49;95289.19;5046545;28;20052;-84
2022/08/25 03:24:39;;;;;;;14.70;7.53;;;;;;;19.82;69.81;95294.69;5045338;28;20033;-83
2022/08/25 03:27:05;;;;;;;26.20;8.00;;;;;;;19.87;70.08;95286.63;5046701;28;20036;-83
2022/08/25 03:29:31;;;;;;;18.08;7.28;;;;;;;19.76;70.34;95291.00;5045329;28;20090;-84
2022/08/25 03:31:58;;;;;;;17.73;7.25;;;;;;;19.76;70.42;95284.75;5046169;28;20056;-84
2022/08/25 03:34:23;;;;;;;15.30;7.65;;;;;;;19.82;70.87;95294.69;5045689;28;20085;-83
2022/08/25 03:36:51;;;;;;;17.38;7.18;;;;;;;19.83;70.56;95290.88;5045986;28;20116;-83
2022/08/25 03:39:18;;;;;;;23.00;7.50;;;;;;;19.91;70.43;95288.88;5045039;28;20418;-84
2022/08/25 03:41:44;;;;;;;18.58;7.32;;;;;;;19.92;70.54;95293.25;5043944;28;20025;-83
2022/08/25 03:44:09;;;;;;;16.77;8.30;;;;;;;19.93;70.34;95289.44;5046631;28;20025;-84
2022/08/25 03:46:40;;;;;;;14.77;7.25;;;;;;;19.95;70.72;95284.59;5045841;28;20028;-84
2022/08/25 03:49:07;;;;;;;14.32;6.70;;;;;;;20.02;70.18;95296.19;5050095;28;20134;-83
2022/08/25 03:51:35;;;;;;;13.68;6.90;;;;;;;20.02;70.04;95298.91;5049534;28;20036;-84
2022/08/25 03:54:00;;;;;;;13.48;7.45;;;;;;;20.04;69.80;95290.53;5049657;28;20541;-84
2022/08/25 03:56:26;;;;;;;14.70;6.88;;;;;;;19.96;69.67;95284.34;5050073;28;20025;-83
2022/08/25 03:58:52;;;;;;;16.92;7.05;;;;;;;20.04;69.74;95285.91;5049253;28;20044;-83
2022/08/25 04:01:18;;;;;;;14.10;7.47;;;;;;;20.07;69.45;95281.88;5056051;28;20025;-84
2022/08/25 04:03:43;;;;;;;12.82;6.88;;;;;;;20.08;69.66;95275.38;5059182;28;20044;-82
2022/08/25 04:06:09;;;;;;;20.58;7.13;;;;;;;20.07;69.67;95274.53;5050250;28;20029;-83
2022/08/25 04:08:35;;;;;;;18.65;7.30;;;;;;;20.10;69.84;95278.69;5047996;28;20029;-84
2022/08/25 04:11:12;;;;;;;16.23;6.80;;;;;;;20.14;69.26;95282.56;5049729;28;20033;-84
2022/08/25 04:13:37;;;;;;;17.38;6.63;;;;;;;20.12;69.33;95277.34;5051403;28;20104;-84
2022/08/25 04:16:08;;;;;;;18.60;7.25;;;;;;;20.11;69.29;95288.50;5049024;28;20116;-84
2022/08/25 04:18:34;;;;;;;14.35;7.03;;;;;;;20.16;69.25;95282.31;5048953;28;20029;-84
2022/08/25 04:21:01;;;;;;;15.10;6.45;;;;;;;20.16;69.03;95275.00;5048850;28;20021;-84
2022/08/25 04:23:26;;;;;;;18.27;7.18;;;;;;;20.23;68.63;95272.13;5050041;28;20021;-85
2022/08/25 04:25:52;;;;;;;16.52;6.97;;;;;;;20.22;69.29;95276.75;5049211;28;20462;-83
2022/08/25 04:28:17;;;;;;;16.17;7.57;;;;;;;20.26;68.45;95277.09;5049163;28;20443;-83
2022/08/25 04:30:43;;;;;;;13.15;6.70;;;;;;;20.18;68.80;95274.75;5049428;28;20021;-84
2022/08/25 04:33:08;;;;;;;12.07;6.85;;;;;;;20.22;68.96;95271.28;5048888;28;20029;-84
2022/08/25 04:35:34;;;;;;;16.38;6.75;;;;;;;20.32;68.77;95269.84;5049806;28;20490;-84
2022/08/25 04:37:59;;;;;;;14.18;7.53;;;;;;;20.28;69.13;95280.38;5048881;28;20029;-84
2022/08/25 04:40:25;;;;;;;11.73;6.78;;;;;;;20.31;68.70;95268.19;5050427;28;20036;-84
2022/08/25 04:42:50;;;;;;;13.52;6.82;;;;;;;20.35;69.00;95272.06;5049745;28;20102;-84
2022/08/25 04:45:16;;;;;;;11.95;6.60;;;;;;;20.41;68.76;95279.25;5049893;28;20025;-83
2022/08/25 04:47:41;;;;;;;17.67;7.35;;;;;;;20.24;68.91;95285.50;5048832;28;20036;-84
2022/08/25 04:50:07;;;;;;;19.75;7.70;;;;;;;20.31;69.03;95285.34;5049075;28;20028;-83
2022/08/25 04:52:32;;;;;;;17.67;6.93;;;;;;;20.31;68.91;95288.09;5049390;28;20029;-83
2022/08/25 04:54:58;;;;;;;18.33;7.15;;;;;;;20.35;68.71;95285.69;5048699;28;20021;-83
2022/08/25 04:57:24;;;;;;;15.55;8.10;;;;;;;20.34;68.86;95289.47;5049768;28;20498;-83
2022/08/25 04:59:50;;;;;;;14.95;6.85;;;;;;;20.37;68.93;95294.44;5046901;28;20025;-84
2022/08/25 05:02:16;;;;;;;15.50;7.28;;;;;;;20.38;68.85;95296.09;5050237;28;20104;-84
2022/08/25 05:04:41;;;;;;;19.00;7.38;;;;;;;20.40;68.92;95302.13;5048690;28;20083;-83
2022/08/25 05:07:06;;;;;;;15.57;7.10;;;;;;;20.37;69.19;95292.56;5049445;28;20033;-83
2022/08/25 05:09:33;;;;;;;21.00;8.13;;;;;;;20.41;69.33;95292.88;5049025;28;20029;-83
2022/08/25 05:12:02;;;;;;;15.68;7.50;;;;;;;20.52;68.61;95284.91;5048691;28;20104;-84
2022/08/25 05:14:27;;;;;;;15.93;7.78;;;;;;;20.46;69.08;95289.41;5049003;28;20476;-83
2022/08/25 05:16:54;;;;;;;18.13;7.80;;;;;;;20.44;69.44;95275.25;5047998;28;20040;-83
2022/08/25 05:19:19;;;;;;;18.27;7.50;;;;;;;20.49;69.29;95284.31;5049227;28;20025;-83
2022/08/25 05:21:45;;;;;;;15.07;7.35;;;;;;;20.53;69.69;95281.94;5047910;28;20025;-84
2022/08/25 05:24:10;;;;;;;13.45;7.40;;;;;;;20.58;69.50;95275.75;5049218;28;20021;-84
2022/08/25 05:26:36;;;;;;;15.73;7.25;;;;;;;20.61;69.41;95276.09;5048239;28;20479;-83
2022/08/25 05:29:03;;;;;;;16.77;7.32;;;;;;;20.58;69.58;95278.47;5048622;28;20089;-82
2022/08/25 05:31:29;;;;;;;15.40;7.07;;;;;;;20.58;69.45;95283.94;5048685;28;20029;-84
2022/08/25 05:33:54;;;;;;;16.58;7.70;;;;;;;20.67;69.70;95278.94;5048023;28;20044;-83
2022/08/25 05:36:20;;;;;;;20.23;7.68;;;;;;;20.67;69.40;95282.47;5048775;28;20404;-84
2022/08/25 05:38:46;;;;;;;14.77;7.80;;;;;;;20.77;69.98;95281.81;5047264;28;20577;-84
2022/08/25 05:41:14;;;;;;;18.65;9.18;;;;;;;20.66;69.93;95274.53;5048853;28;20029;-83
2022/08/25 05:43:40;;;;;;;13.73;8.20;;;;;;;20.50;71.14;95276.97;5047424;28;20059;-83
2022/08/25 05:46:06;;;;;;;19.58;8.77;;;;;;;20.67;70.53;95277.00;5047017;28;20041;-84
2022/08/25 05:48:33;;;;;;;14.52;7.90;;;;;;;20.72;71.00;95279.00;5048049;28;20025;-84
2022/08/25 05:50:59;;;;;;;18.23;8.27;;;;;;;20.78;70.98;95278.00;5047734;28;20056;-84
2022/08/25 05:53:26;;;;;;;15.68;7.60;;;;;;;20.85;70.51;95278.69;5047946;28;20048;-84
2022/08/25 05:55:52;;;;;;;17.02;7.70;;;;;;;21.00;70.21;95277.31;5047153;28;20029;-82
2022/08/25 05:58:18;;;;;;;15.98;8.02;;;;;;;21.04;70.18;95278.47;5048365;28;20025;-83
2022/08/25 06:00:44;;;;;;;13.48;6.72;;;;;;;20.98;70.20;95276.75;5046750;28;20033;-82
2022/08/25 06:03:09;;;;;;;20.10;8.52;;;;;;;21.01;70.15;95281.69;5048007;28;20490;-84
2022/08/25 06:05:35;;;;;;;14.13;7.20;;;;;;;20.98;70.27;95279.47;5047336;28;20032;-83
2022/08/25 06:08:00;;;;;;;18.27;8.07;;;;;;;20.92;69.71;95286.75;5047766;28;20435;-83
2022/08/25 06:10:27;;;;;;;18.83;8.25;;;;;;;21.15;68.88;95275.94;5047647;28;20029;-84
2022/08/25 06:12:52;;;;;;;15.65;8.13;;;;;;;21.19;68.58;95266.16;5047467;28;20400;-84
2022/08/25 06:15:19;;;;;;;17.92;8.00;;;;;;;21.19;68.06;95274.34;5047462;28;20017;-83
2022/08/25 06:17:45;;;;;;;16.42;7.53;;;;;;;21.40;67.71;95282.84;5046893;28;20033;-84
2022/08/25 06:20:19;;;;;;;18.10;8.00;;;;;;;21.47;67.33;95284.31;5047950;28;20025;-83
2022/08/25 06:22:45;;;;;;;15.55;8.18;;;;;;;21.35;68.29;95283.59;5046553;28;20059;-84
2022/08/25 06:25:11;;;;;;;14.35;7.70;;;;;;;21.47;67.92;95275.31;5047744;28;20021;-84
2022/08/25 06:27:37;;;;;;;10.68;8.00;;;;;;;21.66;66.78;95264.09;5047401;28;20037;-83
2022/08/25 06:30:04;;;;;;;15.70;8.10;;;;;;;21.69;67.25;95263.59;5046948;28;20113;-84
2022/08/25 06:32:36;;;;;;;13.10;7.60;;;;;;;21.81;66.29;95271.72;5045984;28;20025;-86
2022/08/25 06:35:07;;;;;;;15.35;6.93;;;;;;;21.77;66.02;95265.94;5046396;28;20081;-83
2022/08/25 06:37:32;;;;;;;15.93;7.03;;;;;;;21.83;66.47;95264.09;5048241;28;20644;-83
2022/08/25 06:39:58;;;;;;;15.23;6.90;;;;;;;21.89;66.06;95265.81;5046389;28;20028;-84
2022/08/25 06:42:23;;;;;;;14.18;7.38;;;;;;;21.81;66.92;95272.53;5047207;28;20040;-83
2022/08/25 06:44:49;;;;;;;15.77;7.80;;;;;;;21.74;67.13;95277.31;5046731;28;20538;-83
2022/08/25 06:47:15;;;;;;;13.50;6.82;;;;;;;21.80;67.06;95268.16;5046893;28;20025;-83
2022/08/25 06:49:41;;;;;;;17.65;7.10;;;;;;;22.04;66.46;95270.63;5045945;28;20492;-83
2022/08/25 06:52:07;;;;;;;15.85;7.95;;;;;;;21.84;66.99;95268.47;5046085;28;20424;-83
2022/08/25 06:54:32;;;;;;;13.85;7.15;;;;;;;22.20;66.00;95274.38;5047084;28;20120;-83
2022/08/25 06:56:58;;;;;;;21.38;7.63;;;;;;;22.21;65.98;95270.59;5046160;28;20029;-83
2022/08/25 06:59:24;;;;;;;15.73;7.50;;;;;;;22.46;63.65;95273.84;5047016;28;20017;-82
2022/08/25 07:01:49;;;;;;;19.02;7.90;;;;;;;22.33;64.51;95273.16;5045961;28;20026;-83
2022/08/25 07:04:15;;;;;;;10.82;6.90;;;;;;;22.45;64.82;95273.03;5049176;28;20546;-83
2022/08/25 07:06:40;;;;;;;17.30;7.95;;;;;;;22.54;64.45;95273.38;5047412;28;20021;-83
2022/08/25 07:09:09;;;;;;;12.63;6.78;;;;;;;22.36;64.87;95266.34;5047163;28;20115;-83
2022/08/25 07:11:35;;;;;;;15.07;7.53;;;;;;;22.29;65.20;95272.03;5047079;28;20025;-82
2022/08/25 07:14:01;;;;;;;11.23;7.28;;;;;;;22.37;64.79;95278.09;5046501;28;20403;-83
2022/08/25 07:16:27;;;;;;;18.80;7.70;;;;;;;22.33;64.79;95269.59;5047946;28;20032;-82
2022/08/25 07:18:55;;;;;;;18.05;8.50;;;;;;;22.17;65.21;95268.59;5051921;28;20094;-82
2022/08/25 07:21:21;;;;;;;20.77;7.80;;;;;;;22.32;64.77;95257.84;5047306;28;20021;-82
2022/08/25 07:23:47;;;;;;;17.75;7.18;;;;;;;22.50;63.76;95265.94;5046403;28;20031;-82
2022/08/25 07:26:20;;;;;;;11.68;7.43;;;;;;;22.56;64.08;95257.56;5047022;28;20025;-83
2022/08/25 07:28:45;;;;;;;14.35;7.45;;;;;;;22.68;63.73;95257.41;5046277;28;20043;-84
2022/08/25 07:31:11;;;;;;;14.13;6.97;;;;;;;22.82;63.61;95268.78;5046429;28;20025;-82
2022/08/25 07:33:36;;;;;;;13.20;7.45;;;;;;;22.67;63.76;95266.72;5046178;28;20045;-83
2022/08/25 07:36:02;;;;;;;11.05;6.95;;;;;;;22.67;63.94;95268.59;5045398;28;20087;-83
2022/08/25 07:38:28;;;;;;;12.68;6.32;;;;;;;22.69;63.50;95264.56;5046619;28;20021;-83
2022/08/25 07:41:00;;;;;;;12.95;7.07;;;;;;;22.77;63.41;95265.16;5045484;28;20055;-83
2022/08/25 07:43:25;;;;;;;14.90;8.50;;;;;;;22.77;63.34;95265.97;5046357;28;20491;-83
2022/08/25 07:45:51;;;;;;;10.48;6.63;;;;;;;22.71;63.47;95265.09;5045836;28;20083;-83
2022/08/25 07:48:18;;;;;;;14.32;7.43;;;;;;;22.72;63.47;95274.13;5046157;28;20403;-83
2022/08/25 07:50:44;;;;;;;13.73;7.00;;;;;;;22.79;62.74;95268.47;5045871;28;20021;-82
2022/08/25 07:53:10;;;;;;;15.45;7.03;;;;;;;22.76;63.29;95264.34;5045378;28;20036;-84
2022/08/25 07:55:35;;;;;;;22.10;7.50;;;;;;;22.94;63.37;95262.31;5046071;28;20499;-84
2022/08/25 07:58:02;;;;;;;17.35;6.97;;;;;;;22.90;62.63;95266.63;5044885;28;20127;-83
2022/08/25 08:00:28;;;;;;;19.15;7.05;;;;;;;22.80;62.80;95253.69;5045998;28;20079;-82
2022/08/25 08:02:55;;;;;;;17.13;6.80;;;;;;;22.87;63.40;95256.22;5045228;28;20056;-82
2022/08/25 08:05:20;;;;;;;14.60;6.75;;;;;;;22.91;62.82;95254.63;5045926;28;20029;-82
2022/08/25 08:07:46;;;;;;;14.73;7.13;;;;;;;23.03;63.04;95252.53;5045450;28;20541;-83
2022/08/25 08:10:13;;;;;;;28.30;6.68;;;;;;;23.31;60.93;95252.47;5045406;28;20427;-84
2022/08/25 08:12:38;;;;;;;18.80;7.20;;;;;;;23.46;61.08;95246.28;5045805;28;20024;-83
2022/08/25 08:15:04;;;;;;;19.35;6.80;;;;;;;23.47;60.74;95245.22;5044916;28;20055;-82
2022/08/25 08:17:30;;;;;;;22.08;6.85;;;;;;;23.52;59.99;95234.28;5046341;28;20036;-83
2022/08/25 08:19:56;;;;;;;15.43;6.50;;;;;;;23.91;60.45;95232.28;5044750;28;20014;-83
2022/08/25 08:22:22;;;;;;;17.50;7.05;;;;;;;24.04;59.05;95240.00;5046327;28;20087;-83
2022/08/25 08:24:47;;;;;;;22.20;7.13;;;;;;;24.18;59.27;95231.34;5044622;28;20016;-83
2022/08/25 08:27:13;;;;;;;22.65;6.80;;;;;;;24.39;59.75;95223.97;5045546;28;20094;-85
2022/08/25 08:29:40;;;;;;;25.25;11.07;;;;;;;24.61;58.11;95227.59;5045361;28;20053;-84
2022/08/25 08:32:06;;;;;;;16.02;7.03;;;;;;;24.37;58.53;95220.69;5044805;28;20431;-84
2022/08/25 08:34:32;;;;;;;26.00;7.78;;;;;;;24.42;58.23;95222.63;5049079;28;20083;-84
2022/08/25 08:36:58;;;;;;;16.38;6.28;;;;;;;24.46;58.79;95226.47;5048211;28;20033;-84
2022/08/25 08:39:23;;;;;;;16.98;6.90;;;;;;;24.29;58.64;95221.22;5049562;28;20056;-84
2022/08/25 08:44:43;;;;;;;20.73;7.30;;;;;;;24.32;57.33;95212.47;5053798;28;20538;-83
2022/08/25 08:47:14;;;;;;;18.23;5.88;;;;;;;24.57;58.26;95217.16;5052018;28;20079;-83
2022/08/25 08:49:47;;;;;;;16.35;6.13;;;;;;;25.04;55.50;95205.41;5048473;28;20037;-83
2022/08/25 08:52:12;;;;;;;;;;;;;;;25.00;53.14;95213.38;5050289;28;20095;-83
2022/08/25 08:54:38;;;;;;;22.38;6.50;;;;;;;25.14;52.86;95202.66;5046499;28;19912;-84
2022/08/25 08:57:18;;;;;;;22.75;6.22;;;;;;;25.35;53.81;95196.31;5047578;28;20031;-84
2022/08/25 08:59:52;;;;;;;22.83;6.38;;;;;;;25.41;53.79;95206.19;5046690;28;20052;-84
2022/08/25 09:02:42;;;;;;;16.38;6.32;;;;;;;25.40;54.11;95202.63;5046782;28;20407;-83
2022/08/25 09:05:13;;;;;;;18.33;6.30;;;;;;;25.67;54.54;95193.25;5048001;28;20087;-84
2022/08/25 09:07:43;;;;;;;23.55;6.38;;;;;;;25.70;54.20;95208.34;5029909;28;20112;-83
2022/08/25 09:10:09;;;;;;;20.70;6.20;;;;;;;25.68;53.33;95194.88;5031404;28;20033;-83
2022/08/25 09:13:01;;;;;;;19.40;5.18;;;;;;;25.75;52.18;95200.09;5030137;28;20017;-83
2022/08/25 09:16:53;;;;;;;19.85;5.38;;;;;;;25.87;50.76;95196.19;5037661;28;20124;-82
2022/08/25 09:18:25;;;;;;;20.23;5.68;;;;;;;26.00;48.39;95203.84;5049158;28;20033;-83
2022/08/25 09:20:58;;;;;;;27.60;5.07;;;;;;;26.02;47.86;95198.06;5030035;28;20083;-83
2022/08/25 09:23:42;;;;;;;23.50;5.18;;;;;;;26.00;45.81;95198.34;5047630;28;20032;-83
2022/08/25 09:26:29;;;;;;;24.83;4.78;;;;;;;25.98;45.91;95197.81;5048314;28;20080;-83
2022/08/25 09:29:08;;;;;;;27.67;4.55;;;;;;;25.95;45.64;95198.38;5048070;28;20067;-84
2022/08/25 09:31:39;;;;;;;20.02;4.90;;;;;;;26.02;47.27;95190.63;5049528;28;20094;-83
2022/08/25 09:34:26;;;;;;;24.83;5.10;;;;;;;26.03;46.00;95197.78;5045608;28;20086;-83
2022/08/25 09:36:51;;;;;;;26.95;5.20;;;;;;;25.94;47.07;95191.22;5047573;28;20492;-82
2022/08/25 09:39:18;;;;;;;17.40;5.13;;;;;;;25.85;46.06;95187.41;5048213;28;20029;-82
2022/08/25 09:41:49;;;;;;;23.50;4.57;;;;;;;25.85;46.49;95187.41;5047725;28;20032;-85
2022/08/25 09:44:19;;;;;;;15.52;4.80;;;;;;;25.89;46.24;95188.50;5030021;28;20025;-83
2022/08/25 09:47:07;;;;;;;22.45;4.88;;;;;;;25.94;47.25;95185.72;5047157;28;20044;-83
2022/08/25 09:49:40;;;;;;;15.45;4.53;;;;;;;25.88;47.02;95192.34;5047106;28;20564;-83
2022/08/25 09:52:38;;;;;;;24.70;5.03;;;;;;;25.83;45.13;95195.13;5048176;28;20104;-82
2022/08/25 09:55:07;;;;;;;22.33;4.78;;;;;;;25.74;45.42;95187.47;5046352;28;20550;-82
2022/08/25 09:57:36;;;;;;;25.23;4.28;;;;;;;25.74;45.45;95192.97;5048609;28;20029;-82
2022/08/25 10:00:12;;;;;;;18.35;4.07;;;;;;;25.74;45.93;95192.97;5047506;28;20033;-83
2022/08/25 10:02:37;;;;;;;20.45;4.70;;;;;;;25.84;46.51;95196.75;5046502;28;20039;-83
2022/08/25 10:05:20;;;;;;;26.92;4.63;;;;;;;25.82;47.50;95191.56;5029852;28;20186;-83
2022/08/25 10:07:52;;;;;;;27.05;5.18;;;;;;;25.71;47.78;95199.00;5046852;28;20143;-83
2022/08/25 10:10:23;;;;;;;;;;;;;;;25.73;47.38;95198.72;5046955;28;20040;-83
2022/08/25 10:12:49;;;;;;;32.35;5.05;;;;;;;25.65;47.59;95200.94;5046815;28;19916;-83
2022/08/25 10:15:34;;;;;;;23.55;4.68;;;;;;;25.60;47.31;95197.38;5047791;28;20025;-83
2022/08/25 10:18:16;;;;;;;17.75;4.28;;;;;;;25.74;47.76;95187.47;5047345;28;20108;-83
2022/08/25 10:20:41;;;;;;;23.07;4.93;;;;;;;25.95;46.56;95184.63;5047948;28;20028;-83
2022/08/25 10:23:12;;;;;;;16.92;4.32;;;;;;;26.02;47.61;95187.06;5046483;28;20021;-83
2022/08/25 10:25:41;;;;;;;22.98;3.97;;;;;;;26.09;47.10;95182.09;5046388;28;20033;-83
2022/08/25 10:28:19;;;;;;;26.77;5.47;;;;;;;26.12;42.81;95187.00;5047562;28;20467;-83
2022/08/25 10:30:44;;;;;;;22.30;3.72;;;;;;;26.16;42.24;95184.53;5045761;28;20029;-83
2022/08/25 10:33:13;;;;;;;20.48;3.63;;;;;;;26.21;41.66;95176.25;5046702;28;20036;-83
2022/08/25 10:36:17;;;;;;;24.02;3.50;;;;;;;26.17;42.28;95181.50;5047114;28;20055;-83
2022/08/25 10:39:10;;;;;;;21.52;3.35;;;;;;;26.27;43.84;95174.28;5044770;28;20044;-83
2022/08/25 10:41:56;;;;;;;16.95;3.05;;;;;;;26.23;42.80;95179.53;5046365;28;20033;-83
2022/08/25 10:47:57;;;;;;;17.75;2.80;;;;;;;26.24;42.29;95172.09;5045325;28;20190;-84
2022/08/25 10:50:37;;;;;;;21.52;3.95;;;;;;;26.20;42.75;95169.09;5046268;28;20396;-83
2022/08/25 10:53:17;;;;;;;18.70;3.80;;;;;;;26.11;42.69;95163.41;5045457;28;20462;-83
2022/08/25 10:55:52;;;;;;;21.55;3.35;;;;;;;26.22;43.44;95164.16;5045749;28;20060;-83
2022/08/25 10:58:45;;;;;;;29.45;3.97;;;;;;;26.26;43.19;95162.47;5045637;28;20043;-83
2022/08/25 11:01:27;;;;;;;20.20;3.83;;;;;;;26.42;43.87;95167.91;5045127;28;20029;-83
2022/08/25 11:04:11;;;;;;;19.17;4.50;;;;;;;26.60;43.70;95163.63;5044495;28;20528;-83
2022/08/25 11:06:54;;;;;;;21.63;3.90;;;;;;;26.73;42.93;95166.88;5046802;28;20047;-83
2022/08/25 11:09:23;;;;;;;26.80;3.90;;;;;;;26.79;41.98;95152.75;5044280;28;20036;-83
2022/08/25 11:11:56;;;;;;;32.25;4.70;;;;;;;26.64;42.09;95155.66;5028801;28;20326;-83
2022/08/25 11:14:23;;;;;;;25.00;4.07;;;;;;;26.48;43.00;95165.94;5029118;28;20415;-84
2022/08/25 11:17:11;;;;;;;20.35;4.57;;;;;;;26.44;42.53;95151.94;5044321;28;20029;-83
2022/08/25 11:19:38;;;;;;;17.98;3.53;;;;;;;26.39;43.39;95146.50;5031499;28;20048;-83
2022/08/25 11:22:31;;;;;;;20.90;4.55;;;;;;;26.38;43.84;95151.16;5028444;28;20435;-84
2022/08/25 11:25:08;;;;;;;24.45;3.97;;;;;;;26.50;43.47;95148.03;5046228;28;20380;-83
2022/08/25 11:28:04;;;;;;;16.20;3.53;;;;;;;26.62;42.45;95138.59;5044919;28;20033;-84
2022/08/25 11:30:30;;;;;;;17.58;3.50;;;;;;;26.78;42.60;95136.53;5044705;28;20478;-83
2022/08/25 11:32:56;;;;;;;23.38;3.30;;;;;;;26.96;42.87;95143.25;5046847;28;20021;-85
2022/08/25 11:35:42;;;;;;;27.27;4.28;;;;;;;26.95;42.41;95135.31;5027190;28;20044;-83
2022/08/25 11:38:26;;;;;;;15.05;3.75;;;;;;;27.03;42.90;95132.78;5044663;28;20421;-83
2022/08/25 11:40:54;;;;;;;17.15;3.72;;;;;;;26.96;42.08;95121.25;5046023;28;20035;-83